createdAt,value
2022-08-22T00:02:17.547Z,93.47
2022-08-22T00:02:42.057Z,81.29
2022-08-22T00:02:55.978Z,87.54
2022-08-22T00:03:01.345Z,90.55
2022-08-22T00:03:03.072Z,77.08
2022-08-22T00:04:53.050Z,93.81
2022-08-22T00:07:28.647Z,94.21
2022-08-22T00:10:11.627Z,94.08
2022-08-22T00:13:12.114Z,94.62
2022-08-22T00:15:52.547Z,95.50
2022-08-22T00:18:25.128Z,94.75
2022-08-22T00:20:57.578Z,93.93
2022-08-22T00:23:52.584Z,92.72
2022-08-22T00:26:22.094Z,92.43
2022-08-22T00:28:56.238Z,94.28
2022-08-22T00:31:29.050Z,93.91
2022-08-22T00:34:04.586Z,93.89
2022-08-22T00:36:39.318Z,93.86
2022-08-22T00:39:36.309Z,92.74
2022-08-22T00:42:33.702Z,91.79
2022-08-22T00:45:03.212Z,91.86
2022-08-22T00:47:38.731Z,91.43
2022-08-22T00:50:31.561Z,92.10
2022-08-22T00:53:18.053Z,91.69
2022-08-22T00:56:20.435Z,90.24
2022-08-22T00:58:52.976Z,92.19
2022-08-22T01:01:27.253Z,95.53
2022-08-22T01:04:14.635Z,98.06
2022-08-22T01:07:16.370Z,98.88
2022-08-22T01:09:58.367Z,100.00
2022-08-22T01:12:46.408Z,98.85
2022-08-22T01:15:19.649Z,99.69
2022-08-22T01:18:09.358Z,99.90
2022-08-22T01:21:26.458Z,100.00
2022-08-22T01:24:14.747Z,100.00
2022-08-22T01:27:05.058Z,96.38
2022-08-22T01:29:57.128Z,95.40
2022-08-22T01:32:39.543Z,94.24
2022-08-22T01:35:23.000Z,95.00
2022-08-22T01:37:59.660Z,95.37
2022-08-22T01:41:13.118Z,93.45
2022-08-22T01:44:00.619Z,95.22
2022-08-22T01:46:52.597Z,94.92
2022-08-22T01:49:26.437Z,94.75
2022-08-22T01:52:05.507Z,95.00
2022-08-22T01:54:54.785Z,94.51
2022-08-22T01:57:23.383Z,94.18
2022-08-22T01:59:55.749Z,93.37
2022-08-22T02:02:36.446Z,94.79
2022-08-22T02:05:13.104Z,95.56
2022-08-22T02:07:48.121Z,96.89
2022-08-22T02:10:41.438Z,95.04
2022-08-22T02:13:13.689Z,96.22
2022-08-22T02:15:40.155Z,95.53
2022-08-22T02:18:06.534Z,96.27
2022-08-22T02:21:03.036Z,96.40
2022-08-22T02:23:55.986Z,95.89
2022-08-22T02:26:26.010Z,96.07
2022-08-22T02:29:06.564Z,95.67
2022-08-22T02:31:44.498Z,96.89
2022-08-22T02:34:31.211Z,97.13
2022-08-22T02:37:18.124Z,96.51
2022-08-22T02:40:06.245Z,97.02
2022-08-22T02:42:41.546Z,97.09
2022-08-22T02:45:25.003Z,95.42
2022-08-22T02:48:00.203Z,96.74
2022-08-22T02:50:53.745Z,96.77
2022-08-22T02:53:46.311Z,97.37
2022-08-22T02:56:18.721Z,96.88
2022-08-22T02:59:22.555Z,97.68
2022-08-22T03:01:49.106Z,96.79
2022-08-22T03:04:30.620Z,97.54
2022-08-22T03:07:07.796Z,97.77
2022-08-22T03:09:52.215Z,98.08
2022-08-22T03:12:35.053Z,97.38
2022-08-22T03:15:09.969Z,97.66
2022-08-22T03:17:50.712Z,97.30
2022-08-22T03:20:43.207Z,97.21
2022-08-22T03:23:36.256Z,97.41
2022-08-22T03:26:15.012Z,97.40
2022-08-22T03:28:59.853Z,97.80
2022-08-22T03:31:28.748Z,98.12
2022-08-22T03:34:27.077Z,96.56
2022-08-22T03:37:11.307Z,96.75
2022-08-22T03:39:47.161Z,96.47
2022-08-22T03:42:35.522Z,96.35
2022-08-22T03:45:22.935Z,97.29
2022-08-22T03:48:02.419Z,97.00
2022-08-22T03:50:47.572Z,97.22
2022-08-22T03:53:26.246Z,97.15
2022-08-22T03:56:25.402Z,97.02
2022-08-22T03:59:22.310Z,97.78
2022-08-22T04:02:42.545Z,97.61
2022-08-22T04:05:10.397Z,96.57
2022-08-22T04:08:01.705Z,97.08
2022-08-22T04:10:47.371Z,98.32
2022-08-22T04:13:27.787Z,98.95
2022-08-22T04:16:31.928Z,97.71
2022-08-22T04:19:36.194Z,97.92
2022-08-22T04:22:36.173Z,98.15
2022-08-22T04:25:08.501Z,98.22
2022-08-22T04:27:57.005Z,97.92
2022-08-22T04:30:33.270Z,97.71
2022-08-22T04:33:10.895Z,98.25
2022-08-22T04:35:44.863Z,98.88
2022-08-22T04:38:30.205Z,97.28
2022-08-22T04:41:13.598Z,97.82
2022-08-22T04:43:56.719Z,97.66
2022-08-22T04:46:35.127Z,98.32
2022-08-22T04:49:23.016Z,98.10
2022-08-22T04:51:57.335Z,97.42
2022-08-22T04:54:45.826Z,98.09
2022-08-22T04:57:36.267Z,98.44
2022-08-22T05:00:10.245Z,98.68
2022-08-22T05:02:40.227Z,98.01
2022-08-22T05:05:15.629Z,97.99
2022-08-22T05:07:50.721Z,98.15
2022-08-22T05:10:21.942Z,99.07
2022-08-22T05:12:54.398Z,97.91
2022-08-22T05:15:27.857Z,97.78
2022-08-22T05:18:00.119Z,97.06
2022-08-22T05:20:28.392Z,95.38
2022-08-22T05:23:17.418Z,97.11
2022-08-22T05:25:47.269Z,96.10
2022-08-22T05:28:20.732Z,97.34
2022-08-22T05:30:48.826Z,96.43
2022-08-22T05:33:19.495Z,95.52
2022-08-22T05:35:57.892Z,94.81
2022-08-22T05:38:30.906Z,95.21
2022-08-22T05:41:06.811Z,94.92
2022-08-22T05:43:38.404Z,94.49
2022-08-22T05:46:09.907Z,94.73
2022-08-22T05:48:53.294Z,93.12
2022-08-22T05:51:27.009Z,94.11
2022-08-22T05:54:09.339Z,94.86
2022-08-22T05:56:41.182Z,91.39
2022-08-22T05:59:35.247Z,91.20
2022-08-22T06:02:01.752Z,91.27
2022-08-22T06:04:37.131Z,89.94
2022-08-22T06:07:14.699Z,89.20
2022-08-22T06:09:47.226Z,88.54
2022-08-22T06:12:21.821Z,87.85
2022-08-22T06:15:12.548Z,88.69
2022-08-22T06:17:49.870Z,83.14
2022-08-22T06:20:37.150Z,83.19
2022-08-22T06:23:07.550Z,82.54
2022-08-22T06:25:38.858Z,84.07
2022-08-22T06:28:12.400Z,80.56
2022-08-22T06:30:39.632Z,83.14
2022-08-22T06:33:12.839Z,84.99
2022-08-22T06:36:02.580Z,78.85
2022-08-22T06:38:35.622Z,80.85
2022-08-22T06:41:09.195Z,78.71
2022-08-22T06:43:42.484Z,82.19
2022-08-22T06:46:13.156Z,75.50
2022-08-22T06:48:41.302Z,74.72
2022-08-22T06:51:08.842Z,75.17
2022-08-22T06:53:47.913Z,70.52
2022-08-22T06:56:22.259Z,73.00
2022-08-22T06:58:54.507Z,68.08
2022-08-22T07:01:27.241Z,68.19
2022-08-22T07:03:59.429Z,66.76
2022-08-22T07:06:33.938Z,70.10
2022-08-22T07:09:00.689Z,68.24
2022-08-22T07:11:38.175Z,71.19
2022-08-22T07:14:11.573Z,66.26
2022-08-22T07:16:44.070Z,66.36
2022-08-22T07:19:30.782Z,70.76
2022-08-22T07:21:58.174Z,65.18
2022-08-22T07:24:31.726Z,64.01
2022-08-22T07:27:20.646Z,67.17
2022-08-22T07:30:04.007Z,62.67
2022-08-22T07:32:43.248Z,61.79
2022-08-22T07:35:09.843Z,64.36
2022-08-22T07:38:04.369Z,58.56
2022-08-22T07:40:49.239Z,61.15
2022-08-22T07:43:32.681Z,62.05
2022-08-22T07:46:07.514Z,62.86
2022-08-22T07:49:08.217Z,57.67
2022-08-22T07:51:43.147Z,62.61
2022-08-22T07:54:27.135Z,59.66
2022-08-22T07:57:01.250Z,59.01
2022-08-22T07:59:30.271Z,53.87
2022-08-22T08:02:00.110Z,49.95
2022-08-22T08:04:36.882Z,50.91
2022-08-22T08:07:08.471Z,49.80
2022-08-22T08:09:48.712Z,51.31
2022-08-22T08:12:16.169Z,50.40
2022-08-22T08:14:46.248Z,50.38
2022-08-22T08:17:32.307Z,45.77
2022-08-22T08:20:03.494Z,46.34
2022-08-22T08:22:31.081Z,49.86
2022-08-22T08:25:00.500Z,45.56
2022-08-22T08:27:50.207Z,44.54
2022-08-22T08:30:22.271Z,44.91
2022-08-22T08:32:57.592Z,43.90
2022-08-22T08:36:03.539Z,43.83
2022-08-22T08:38:36.511Z,46.60
2022-08-22T08:41:32.921Z,44.35
2022-08-22T08:44:37.896Z,46.15
2022-08-22T08:47:24.142Z,44.40
2022-08-22T08:50:29.290Z,43.90
2022-08-22T08:53:14.997Z,43.96
2022-08-22T08:55:41.541Z,42.91
2022-08-22T08:58:33.719Z,41.18
2022-08-22T09:01:27.526Z,41.46
2022-08-22T09:04:15.334Z,43.44
2022-08-22T09:06:52.878Z,42.48
2022-08-22T09:09:46.607Z,41.40
2022-08-22T09:16:09.936Z,40.75
2022-08-22T09:19:07.183Z,41.35
2022-08-22T09:21:55.639Z,43.30
2022-08-22T09:24:34.429Z,41.76
2022-08-22T09:27:08.974Z,44.89
2022-08-22T09:29:54.864Z,43.30
2022-08-22T09:32:35.766Z,42.21
2022-08-22T09:35:15.579Z,40.51
2022-08-22T09:38:03.084Z,40.73
2022-08-22T09:40:52.210Z,40.47
2022-08-22T09:43:45.157Z,39.41
2022-08-22T09:46:15.089Z,41.89
2022-08-22T09:48:47.229Z,39.29
2022-08-22T09:51:32.220Z,39.29
2022-08-22T09:54:06.226Z,37.37
2022-08-22T09:56:44.740Z,40.62
2022-08-22T09:59:27.984Z,40.52
2022-08-22T10:02:06.802Z,39.94
2022-08-22T10:04:56.306Z,40.05
2022-08-22T10:08:07.746Z,39.56
2022-08-22T10:10:38.123Z,38.99
2022-08-22T10:13:27.019Z,38.28
2022-08-22T10:16:15.025Z,39.00
2022-08-22T10:18:52.810Z,39.78
2022-08-22T10:21:32.673Z,41.94
2022-08-22T10:24:25.446Z,39.63
2022-08-22T10:26:55.859Z,39.14
2022-08-22T10:29:54.351Z,39.83
2022-08-22T10:32:34.542Z,37.75
2022-08-22T10:35:17.498Z,38.76
2022-08-22T10:37:56.477Z,39.10
2022-08-22T10:40:29.351Z,39.86
2022-08-22T10:43:02.775Z,34.36
2022-08-22T10:45:40.583Z,36.83
2022-08-22T10:48:10.461Z,36.23
2022-08-22T10:50:54.999Z,37.22
2022-08-22T10:53:42.748Z,37.57
2022-08-22T10:56:14.009Z,36.60
2022-08-22T10:59:02.364Z,35.55
2022-08-22T11:01:41.577Z,35.34
2022-08-22T11:04:28.184Z,36.41
2022-08-22T11:07:38.214Z,35.68
2022-08-22T11:10:19.241Z,36.09
2022-08-22T11:13:14.068Z,41.15
2022-08-22T11:15:43.663Z,35.89
2022-08-22T11:18:57.956Z,35.80
2022-08-22T11:21:47.611Z,36.58
2022-08-22T11:24:56.752Z,35.43
2022-08-22T11:27:40.165Z,31.48
2022-08-22T11:30:18.594Z,29.63
2022-08-22T11:33:02.206Z,30.75
2022-08-22T11:35:41.763Z,29.06
2022-08-22T11:38:49.610Z,28.88
2022-08-22T11:41:28.393Z,29.08
2022-08-22T11:44:15.794Z,26.67
2022-08-22T11:46:50.365Z,28.03
2022-08-22T11:49:42.654Z,30.06
2022-08-22T11:52:51.699Z,26.34
2022-08-22T11:55:24.076Z,28.17
2022-08-22T11:58:31.829Z,29.57
2022-08-22T12:01:21.987Z,28.38
2022-08-22T12:04:04.794Z,27.74
2022-08-22T12:06:55.884Z,25.80
2022-08-22T12:09:43.249Z,26.32
2022-08-22T12:12:23.268Z,28.26
2022-08-22T12:15:30.460Z,25.89
2022-08-22T12:18:21.217Z,26.43
2022-08-22T12:21:14.029Z,28.17
2022-08-22T12:23:55.814Z,28.04
2022-08-22T12:26:50.570Z,26.69
2022-08-22T12:29:54.138Z,30.84
2022-08-22T12:32:39.266Z,27.68
2022-08-22T12:35:16.572Z,27.80
2022-08-22T12:38:26.533Z,29.75
2022-08-22T12:41:34.938Z,27.27
2022-08-22T12:44:26.671Z,31.50
2022-08-22T12:47:22.458Z,31.86
2022-08-22T12:50:19.954Z,29.99
2022-08-22T12:52:51.046Z,29.33
2022-08-22T12:55:48.770Z,31.39
2022-08-22T12:58:24.248Z,31.25
2022-08-22T13:00:52.542Z,31.05
2022-08-22T13:03:28.163Z,33.41
2022-08-22T13:06:00.580Z,31.57
2022-08-22T13:08:33.462Z,31.95
2022-08-22T13:11:10.045Z,31.51
2022-08-22T13:13:56.647Z,31.47
2022-08-22T13:16:25.595Z,32.87
2022-08-22T13:19:00.571Z,33.00
2022-08-22T13:21:39.663Z,30.91
2022-08-22T13:24:22.547Z,33.46
2022-08-22T13:27:02.222Z,29.75
2022-08-22T13:29:53.633Z,30.06
2022-08-22T13:32:30.911Z,31.82
2022-08-22T13:34:59.679Z,32.99
2022-08-22T13:37:35.488Z,33.33
2022-08-22T13:40:08.741Z,33.39
2022-08-22T13:42:45.550Z,33.64
2022-08-22T13:45:25.806Z,34.19
2022-08-22T13:47:59.497Z,33.74
2022-08-22T13:50:35.828Z,32.24
2022-08-22T13:53:50.078Z,32.14
2022-08-22T13:56:50.673Z,31.35
2022-08-22T13:59:49.427Z,33.82
2022-08-22T14:02:34.186Z,33.08
2022-08-22T14:05:06.882Z,33.76
2022-08-22T14:07:38.776Z,31.09
2022-08-22T14:10:14.774Z,34.61
2022-08-22T14:13:09.024Z,31.35
2022-08-22T14:15:44.899Z,31.59
2022-08-22T14:18:31.455Z,32.73
2022-08-22T14:21:40.501Z,32.76
2022-08-22T14:24:25.776Z,32.37
2022-08-22T14:27:06.423Z,32.55
2022-08-22T14:29:38.857Z,34.58
2022-08-22T14:32:13.818Z,30.66
2022-08-22T14:34:45.332Z,35.42
2022-08-22T14:37:28.849Z,33.09
2022-08-22T14:40:02.014Z,33.61
2022-08-22T14:42:50.775Z,34.00
2022-08-22T14:45:25.393Z,34.65
2022-08-22T14:48:30.987Z,36.47
2022-08-22T14:51:10.225Z,36.91
2022-08-22T14:53:39.939Z,36.40
2022-08-22T14:56:22.859Z,39.17
2022-08-22T14:58:56.090Z,38.21
2022-08-22T15:01:26.410Z,37.07
2022-08-22T15:04:01.508Z,38.94
2022-08-22T15:06:36.064Z,38.89
2022-08-22T15:09:22.611Z,38.08
2022-08-22T15:11:49.488Z,36.63
2022-08-22T15:14:26.204Z,38.44
2022-08-22T15:16:56.062Z,38.12
2022-08-22T15:19:42.273Z,36.89
2022-08-22T15:22:17.090Z,39.51
2022-08-22T15:24:51.895Z,37.97
2022-08-22T15:27:25.334Z,38.78
2022-08-22T15:30:00.627Z,40.82
2022-08-22T15:32:31.849Z,38.48
2022-08-22T15:35:08.934Z,40.36
2022-08-22T15:37:54.079Z,41.02
2022-08-22T15:40:41.215Z,42.75
2022-08-22T15:43:20.122Z,42.61
2022-08-22T15:45:47.940Z,42.55
2022-08-22T15:48:29.750Z,42.74
2022-08-22T15:51:10.400Z,42.97
2022-08-22T15:53:43.212Z,43.32
2022-08-22T15:56:12.651Z,42.57
2022-08-22T15:58:48.090Z,43.29
2022-08-22T16:01:19.824Z,42.45
2022-08-22T16:04:02.037Z,44.62
2022-08-22T16:06:50.484Z,43.82
2022-08-22T16:09:40.749Z,42.59
2022-08-22T16:12:35.539Z,42.67
2022-08-22T16:15:05.379Z,43.41
2022-08-22T16:17:31.798Z,42.41
2022-08-22T16:20:19.742Z,43.64
2022-08-22T16:22:58.963Z,41.16
2022-08-22T16:25:44.318Z,41.96
2022-08-22T16:28:54.309Z,42.19
2022-08-22T16:31:24.547Z,43.80
2022-08-22T16:33:51.349Z,42.15
2022-08-22T16:36:21.027Z,42.40
2022-08-22T16:38:52.235Z,42.87
2022-08-22T16:41:43.309Z,41.73
2022-08-22T16:44:15.871Z,42.81
2022-08-22T16:46:46.018Z,42.68
2022-08-22T16:49:29.456Z,43.37
2022-08-22T16:52:20.996Z,43.67
2022-08-22T16:54:50.405Z,44.19
2022-08-22T16:57:59.304Z,43.69
2022-08-22T17:00:49.715Z,44.12
2022-08-22T17:03:19.339Z,43.90
2022-08-22T17:06:02.495Z,45.80
2022-08-22T17:08:49.059Z,44.73
2022-08-22T17:11:33.663Z,45.40
2022-08-22T17:14:17.530Z,44.58
2022-08-22T17:17:02.310Z,46.76
2022-08-22T17:19:43.255Z,46.23
2022-08-22T17:22:18.750Z,45.07
2022-08-22T17:24:50.917Z,45.98
2022-08-22T17:27:27.960Z,45.90
2022-08-22T17:30:12.005Z,45.18
2022-08-22T17:33:02.595Z,45.61
2022-08-22T17:36:26.493Z,46.21
2022-08-22T17:38:59.793Z,47.51
2022-08-22T17:41:47.567Z,45.98
2022-08-22T17:44:24.341Z,46.60
2022-08-22T17:47:15.011Z,48.50
2022-08-22T17:49:41.491Z,47.43
2022-08-22T17:52:25.080Z,48.22
2022-08-22T17:55:01.292Z,48.69
2022-08-22T17:57:34.038Z,49.81
2022-08-22T18:00:28.339Z,50.15
2022-08-22T18:03:13.454Z,50.40
2022-08-22T18:06:04.209Z,51.38
2022-08-22T18:11:41.363Z,51.44
2022-08-22T18:14:18.438Z,53.01
2022-08-22T18:16:48.489Z,53.14
2022-08-22T18:19:23.874Z,55.00
2022-08-22T18:21:58.822Z,53.84
2022-08-22T18:24:35.134Z,55.74
2022-08-22T18:27:09.332Z,56.55
2022-08-22T18:30:16.563Z,55.96
2022-08-22T18:33:05.990Z,59.27
2022-08-22T18:35:53.801Z,56.58
2022-08-22T18:38:24.204Z,56.19
2022-08-22T18:41:19.703Z,56.98
2022-08-22T18:43:48.330Z,56.43
2022-08-22T18:46:31.634Z,58.15
2022-08-22T18:49:18.054Z,59.99
2022-08-22T18:51:44.737Z,59.51
2022-08-22T18:54:11.488Z,59.36
2022-08-22T18:56:43.606Z,60.26
2022-08-22T18:59:22.281Z,62.57
2022-08-22T19:02:26.317Z,62.30
2022-08-22T19:05:21.692Z,61.37
2022-08-22T19:08:12.651Z,63.80
2022-08-22T19:10:55.224Z,64.09
2022-08-22T19:13:46.234Z,65.06
2022-08-22T19:16:38.299Z,66.08
2022-08-22T19:19:17.861Z,65.81
2022-08-22T19:22:23.174Z,68.04
2022-08-22T19:25:19.187Z,68.48
2022-08-22T19:28:14.268Z,69.02
2022-08-22T19:30:50.086Z,68.90
2022-08-22T19:33:34.521Z,70.27
2022-08-22T19:36:11.511Z,68.54
2022-08-22T19:38:57.431Z,68.58
2022-08-22T19:41:59.748Z,69.99
2022-08-22T19:44:26.150Z,69.67
2022-08-22T19:47:26.991Z,70.44
2022-08-22T19:50:00.902Z,71.45
2022-08-22T19:52:51.899Z,70.92
2022-08-22T19:55:44.996Z,72.24
2022-08-22T19:58:33.012Z,72.24
2022-08-22T20:01:35.427Z,72.84
2022-08-22T20:04:20.634Z,71.46
2022-08-22T20:07:05.047Z,72.82
2022-08-22T20:10:05.392Z,71.56
2022-08-22T20:12:55.374Z,73.31
2022-08-22T20:15:24.321Z,73.71
2022-08-22T20:20:56.461Z,74.62
2022-08-22T20:23:28.766Z,74.08
2022-08-22T20:25:57.137Z,74.29
2022-08-22T20:28:48.861Z,74.80
2022-08-22T20:31:22.115Z,75.43
2022-08-22T20:33:55.238Z,75.71
2022-08-22T20:36:27.565Z,74.31
2022-08-22T20:39:00.658Z,73.31
2022-08-22T20:41:34.151Z,76.12
2022-08-22T20:44:00.692Z,76.15
2022-08-22T20:46:55.178Z,76.56
2022-08-22T20:49:34.414Z,75.87
2022-08-22T20:52:03.548Z,76.90
2022-08-22T20:54:40.988Z,76.64
2022-08-22T20:57:10.479Z,77.30
2022-08-22T20:59:41.622Z,77.64
2022-08-22T21:02:28.631Z,78.39
2022-08-22T21:05:03.716Z,78.18
2022-08-22T21:07:33.822Z,79.61
2022-08-22T21:10:28.422Z,79.30
2022-08-22T21:13:07.630Z,79.79
2022-08-22T21:15:46.595Z,79.14
2022-08-22T21:18:23.338Z,79.48
2022-08-22T21:20:50.687Z,79.07
2022-08-22T21:23:17.681Z,80.11
2022-08-22T21:26:04.398Z,80.31
2022-08-22T21:28:35.449Z,80.29
2022-08-22T21:31:13.182Z,80.13
2022-08-22T21:33:42.863Z,80.39
2022-08-22T21:36:12.566Z,80.10
2022-08-22T21:38:40.629Z,81.03
2022-08-22T21:41:07.433Z,82.04
2022-08-22T21:43:37.840Z,79.59
2022-08-22T21:46:06.925Z,81.47
2022-08-22T21:48:35.198Z,81.64
2022-08-22T21:51:42.274Z,81.91
2022-08-22T21:54:30.350Z,82.55
2022-08-22T21:57:16.115Z,82.59
2022-08-22T21:59:51.894Z,82.43
2022-08-22T22:02:41.159Z,82.36
2022-08-22T22:05:11.283Z,82.21
2022-08-22T22:07:40.342Z,82.35
2022-08-22T22:10:10.375Z,83.26
2022-08-22T22:12:41.897Z,82.69
2022-08-22T22:15:12.614Z,83.60
2022-08-22T22:17:39.337Z,82.98
2022-08-22T22:20:07.085Z,83.44
2022-08-22T22:22:33.539Z,83.95
2022-08-22T22:25:04.281Z,83.16
2022-08-22T22:27:31.678Z,83.69
2022-08-22T22:29:58.390Z,84.21
2022-08-22T22:32:24.921Z,84.77
2022-08-22T22:34:51.487Z,84.51
2022-08-22T22:37:18.554Z,85.09
2022-08-22T22:39:45.161Z,85.35
2022-08-22T22:42:11.669Z,84.54
2022-08-22T22:44:38.130Z,85.64
2022-08-22T22:47:04.938Z,84.84
2022-08-22T22:49:32.521Z,84.49
2022-08-22T22:52:00.011Z,84.18
2022-08-22T22:54:34.319Z,85.92
2022-08-22T22:57:00.830Z,85.65
2022-08-22T22:59:27.692Z,85.07
2022-08-22T23:02:08.084Z,85.69
2022-08-22T23:04:37.982Z,85.62
2022-08-22T23:07:05.803Z,85.39
2022-08-22T23:09:38.755Z,85.22
2022-08-22T23:12:12.399Z,86.10
2022-08-22T23:14:38.881Z,86.10
2022-08-22T23:17:05.671Z,86.80
2022-08-22T23:19:33.091Z,86.68
2022-08-22T23:22:00.964Z,85.11
2022-08-22T23:24:30.032Z,84.59
2022-08-22T23:26:57.315Z,85.70
2022-08-22T23:29:24.118Z,86.13
2022-08-22T23:31:56.558Z,85.27
2022-08-22T23:34:25.891Z,86.24
2022-08-22T23:36:54.781Z,86.29
2022-08-22T23:39:22.967Z,86.07
2022-08-22T23:41:49.670Z,87.04
2022-08-22T23:44:19.035Z,87.15
2022-08-22T23:46:46.297Z,86.54
2022-08-22T23:49:13.970Z,86.49
2022-08-22T23:51:41.564Z,85.85
2022-08-22T23:54:08.154Z,87.02
2022-08-22T23:56:38.975Z,87.22
2022-08-22T23:59:09.438Z,87.09
